sensor_id;sensor_type;location;lat;lon;timestamp;pressure;altitude;pressure_sealevel;temperature;humidity
12757;BME280;31601;48.042;12.240;2022-08-19T00:00:27;95688.88;;;22.47;62.45
12757;BME280;31601;48.042;12.240;2022-08-19T00:02:54;95679.25;;;22.46;62.40
12757;BME280;31601;48.042;12.240;2022-08-19T00:05:22;95674.41;;;22.53;62.27
12757;BME280;31601;48.042;12.240;2022-08-19T00:07:50;95663.47;;;22.44;62.09
12757;BME280;31601;48.042;12.240;2022-08-19T00:10:18;95667.25;;;22.38;62.41
12757;BME280;31601;48.042;12.240;2022-08-19T00:12:45;95672.59;;;22.33;62.40
12757;BME280;31601;48.042;12.240;2022-08-19T00:15:14;95665.66;;;22.27;62.64
12757;BME280;31601;48.042;12.240;2022-08-19T00:17:42;95676.06;;;22.28;62.56
12757;BME280;31601;48.042;12.240;2022-08-19T00:20:10;95685.16;;;22.27;62.45
12757;BME280;31601;48.042;12.240;2022-08-19T00:22:39;95681.97;;;22.30;62.41
12757;BME280;31601;48.042;12.240;2022-08-19T00:25:07;95688.38;;;22.29;62.43
12757;BME280;31601;48.042;12.240;2022-08-19T00:27:34;95684.09;;;22.33;62.68
12757;BME280;31601;48.042;12.240;2022-08-19T00:30:00;95683.53;;;22.37;62.42
12757;BME280;31601;48.042;12.240;2022-08-19T00:32:28;95681.66;;;22.42;62.45
12757;BME280;31601;48.042;12.240;2022-08-19T00:34:55;95667.25;;;22.38;62.28
12757;BME280;31601;48.042;12.240;2022-08-19T00:37:22;95662.16;;;22.42;62.08
12757;BME280;31601;48.042;12.240;2022-08-19T00:39:52;95650.41;;;22.38;62.58
12757;BME280;31601;48.042;12.240;2022-08-19T00:42:20;95642.94;;;22.29;62.45
12757;BME280;31601;48.042;12.240;2022-08-19T00:44:47;95632.78;;;22.26;62.51
12757;BME280;31601;48.042;12.240;2022-08-19T00:47:14;95649.66;;;22.22;62.95
12757;BME280;31601;48.042;12.240;2022-08-19T00:49:43;95653.91;;;22.23;62.98
12757;BME280;31601;48.042;12.240;2022-08-19T00:52:18;95640.25;;;22.24;62.81
12757;BME280;31601;48.042;12.240;2022-08-19T00:54:46;95625.59;;;22.22;63.09
12757;BME280;31601;48.042;12.240;2022-08-19T00:57:17;95636.03;;;22.13;63.29
12757;BME280;31601;48.042;12.240;2022-08-19T00:59:47;95636.81;;;22.13;63.40
12757;BME280;31601;48.042;12.240;2022-08-19T01:02:18;95622.38;;;22.20;63.40
12757;BME280;31601;48.042;12.240;2022-08-19T01:04:44;95617.09;;;22.09;63.72
12757;BME280;31601;48.042;12.240;2022-08-19T01:07:11;95608.53;;;22.07;63.59
12757;BME280;31601;48.042;12.240;2022-08-19T01:09:38;95611.19;;;22.07;63.66
12757;BME280;31601;48.042;12.240;2022-08-19T01:12:05;95617.63;;;22.06;63.76
12757;BME280;31601;48.042;12.240;2022-08-19T01:14:33;95621.38;;;22.05;63.56
12757;BME280;31601;48.042;12.240;2022-08-19T01:17:01;95620.56;;;22.10;63.49
12757;BME280;31601;48.042;12.240;2022-08-19T01:19:30;95636.00;;;22.18;63.63
12757;BME280;31601;48.042;12.240;2022-08-19T01:22:01;95646.16;;;22.21;63.46
12757;BME280;31601;48.042;12.240;2022-08-19T01:24:29;95656.06;;;22.31;63.29
12757;BME280;31601;48.042;12.240;2022-08-19T01:26:56;95672.31;;;22.40;62.89
12757;BME280;31601;48.042;12.240;2022-08-19T01:29:23;95683.00;;;22.45;62.99
12757;BME280;31601;48.042;12.240;2022-08-19T01:31:50;95694.47;;;22.50;62.58
12757;BME280;31601;48.042;12.240;2022-08-19T01:34:18;95682.69;;;22.51;62.49
12757;BME280;31601;48.042;12.240;2022-08-19T01:36:47;95676.81;;;22.55;62.50
12757;BME280;31601;48.042;12.240;2022-08-19T01:39:17;95667.72;;;22.56;62.16
12757;BME280;31601;48.042;12.240;2022-08-19T01:41:45;95657.03;;;22.50;62.24
12757;BME280;31601;48.042;12.240;2022-08-19T01:44:12;95644.00;;;22.39;62.38
12757;BME280;31601;48.042;12.240;2022-08-19T01:46:39;95654.69;;;22.33;62.56
12757;BME280;31601;48.042;12.240;2022-08-19T01:49:07;95662.44;;;22.35;62.55
12757;BME280;31601;48.042;12.240;2022-08-19T01:51:34;95668.59;;;22.30;62.72
12757;BME280;31601;48.042;12.240;2022-08-19T01:54:01;95670.22;;;22.31;62.74
12757;BME280;31601;48.042;12.240;2022-08-19T01:56:28;95668.06;;;22.28;62.84
12757;BME280;31601;48.042;12.240;2022-08-19T01:59:00;95675.28;;;22.28;62.93
12757;BME280;31601;48.042;12.240;2022-08-19T02:01:27;95672.31;;;22.24;62.77
12757;BME280;31601;48.042;12.240;2022-08-19T02:03:57;95679.56;;;22.24;62.86
12757;BME280;31601;48.042;12.240;2022-08-19T02:06:23;95690.00;;;22.20;63.02
12757;BME280;31601;48.042;12.240;2022-08-19T02:08:50;95693.22;;;22.17;63.01
12757;BME280;31601;48.042;12.240;2022-08-19T02:11:22;95698.00;;;22.15;63.15
12757;BME280;31601;48.042;12.240;2022-08-19T02:13:52;95698.56;;;22.07;63.32
12757;BME280;31601;48.042;12.240;2022-08-19T02:16:20;95700.16;;;22.08;63.45
12757;BME280;31601;48.042;12.240;2022-08-19T02:18:46;95698.31;;;22.03;63.28
12757;BME280;31601;48.042;12.240;2022-08-19T02:21:13;95700.69;;;21.99;63.53
12757;BME280;31601;48.042;12.240;2022-08-19T02:23:40;95692.41;;;22.01;63.30
12757;BME280;31601;48.042;12.240;2022-08-19T02:26:07;95695.91;;;22.02;63.68
12757;BME280;31601;48.042;12.240;2022-08-19T02:28:34;95684.16;;;21.87;64.02
12757;BME280;31601;48.042;12.240;2022-08-19T02:31:02;95678.03;;;21.97;63.97
12757;BME280;31601;48.042;12.240;2022-08-19T02:33:30;95674.53;;;22.02;64.02
12757;BME280;31601;48.042;12.240;2022-08-19T02:35:56;95680.91;;;22.06;63.70
12757;BME280;31601;48.042;12.240;2022-08-19T02:38:23;95668.91;;;21.98;63.77
12757;BME280;31601;48.042;12.240;2022-08-19T02:40:53;95663.84;;;22.02;63.57
12757;BME280;31601;48.042;12.240;2022-08-19T02:43:21;95663.56;;;22.08;63.49
12757;BME280;31601;48.042;12.240;2022-08-19T02:45:48;95658.47;;;22.12;63.27
12757;BME280;31601;48.042;12.240;2022-08-19T02:48:17;95659.00;;;22.09;63.34
12757;BME280;31601;48.042;12.240;2022-08-19T02:50:46;95674.25;;;22.08;63.37
12757;BME280;31601;48.042;12.240;2022-08-19T02:53:13;95672.91;;;22.06;63.33
12757;BME280;31601;48.042;12.240;2022-08-19T02:55:44;95673.44;;;22.03;63.21
12757;BME280;31601;48.042;12.240;2022-08-19T02:58:11;95675.59;;;22.00;63.43
12757;BME280;31601;48.042;12.240;2022-08-19T03:00:42;95680.94;;;22.00;63.33
12757;BME280;31601;48.042;12.240;2022-08-19T03:03:09;95672.41;;;21.98;63.10
12757;BME280;31601;48.042;12.240;2022-08-19T03:05:35;95664.41;;;21.98;63.59
12757;BME280;31601;48.042;12.240;2022-08-19T03:08:04;95650.22;;;21.98;63.21
12757;BME280;31601;48.042;12.240;2022-08-19T03:10:31;95657.44;;;21.97;63.41
12757;BME280;31601;48.042;12.240;2022-08-19T03:12:57;95661.72;;;21.98;63.08
12757;BME280;31601;48.042;12.240;2022-08-19T03:15:24;95664.66;;;21.97;63.24
12757;BME280;31601;48.042;12.240;2022-08-19T03:17:51;95676.13;;;22.03;63.04
12757;BME280;31601;48.042;12.240;2022-08-19T03:20:18;95681.75;;;22.06;63.07
12757;BME280;31601;48.042;12.240;2022-08-19T03:22:44;95677.47;;;22.00;62.93
12757;BME280;31601;48.042;12.240;2022-08-19T03:25:12;95681.47;;;22.03;62.83
12757;BME280;31601;48.042;12.240;2022-08-19T03:27:39;95684.94;;;22.08;62.89
12757;BME280;31601;48.042;12.240;2022-08-19T03:30:06;95687.09;;;22.06;62.95
12757;BME280;31601;48.042;12.240;2022-08-19T03:32:34;95698.03;;;22.10;62.90
12757;BME280;31601;48.042;12.240;2022-08-19T03:35:00;95699.06;;;22.09;62.84
12757;BME280;31601;48.042;12.240;2022-08-19T03:37:27;95718.31;;;22.11;62.66
12757;BME280;31601;48.042;12.240;2022-08-19T03:39:54;95714.56;;;22.17;62.47
12757;BME280;31601;48.042;12.240;2022-08-19T03:42:22;95704.16;;;22.10;62.69
12757;BME280;31601;48.042;12.240;2022-08-19T03:44:49;95710.03;;;22.17;62.56
12757;BME280;31601;48.042;12.240;2022-08-19T03:47:15;95724.19;;;22.18;62.23
12757;BME280;31601;48.042;12.240;2022-08-19T03:49:42;95726.84;;;22.18;62.36
12757;BME280;31601;48.042;12.240;2022-08-19T03:52:09;95725.28;;;22.07;62.95
12757;BME280;31601;48.042;12.240;2022-08-19T03:54:36;95711.88;;;22.22;62.37
12757;BME280;31601;48.042;12.240;2022-08-19T03:57:03;95724.19;;;22.18;62.83
12757;BME280;31601;48.042;12.240;2022-08-19T03:59:33;95722.03;;;22.15;63.19
12757;BME280;31601;48.042;12.240;2022-08-19T04:02:02;95708.72;;;22.10;64.11
12757;BME280;31601;48.042;12.240;2022-08-19T04:04:32;95699.09;;;22.04;64.21
12757;BME280;31601;48.042;12.240;2022-08-19T04:06:58;95691.06;;;22.09;64.60
12757;BME280;31601;48.042;12.240;2022-08-19T04:09:25;95690.78;;;22.10;64.41
12757;BME280;31601;48.042;12.240;2022-08-19T04:11:55;95688.91;;;22.16;64.13
12757;BME280;31601;48.042;12.240;2022-08-19T04:14:23;95695.31;;;22.15;63.98
12757;BME280;31601;48.042;12.240;2022-08-19T04:16:52;95700.94;;;22.18;64.36
12757;BME280;31601;48.042;12.240;2022-08-19T04:19:19;95700.66;;;22.25;64.15
12757;BME280;31601;48.042;12.240;2022-08-19T04:21:48;95709.72;;;22.24;64.31
12757;BME280;31601;48.042;12.240;2022-08-19T04:24:15;95701.19;;;22.22;64.27
12757;BME280;31601;48.042;12.240;2022-08-19T04:26:42;95706.25;;;22.29;63.90
12757;BME280;31601;48.042;12.240;2022-08-19T04:29:11;95712.41;;;22.29;63.58
12757;BME280;31601;48.042;12.240;2022-08-19T04:31:39;95716.97;;;22.24;63.66
12757;BME280;31601;48.042;12.240;2022-08-19T04:34:09;95717.75;;;22.29;63.24
12757;BME280;31601;48.042;12.240;2022-08-19T04:36:37;95722.59;;;22.32;63.16
12757;BME280;31601;48.042;12.240;2022-08-19T04:39:06;95720.44;;;22.34;63.85
12757;BME280;31601;48.042;12.240;2022-08-19T04:41:33;95725.00;;;22.34;64.04
12757;BME280;31601;48.042;12.240;2022-08-19T04:44:17;95732.75;;;22.35;64.45
12757;BME280;31601;48.042;12.240;2022-08-19T04:46:44;95734.06;;;22.28;64.28
12757;BME280;31601;48.042;12.240;2022-08-19T04:49:14;95745.03;;;22.16;64.40
12757;BME280;31601;48.042;12.240;2022-08-19T04:51:43;95735.41;;;22.20;64.57
12757;BME280;31601;48.042;12.240;2022-08-19T04:54:09;95741.28;;;22.17;64.54
12757;BME280;31601;48.042;12.240;2022-08-19T04:56:36;95750.91;;;22.13;64.25
12757;BME280;31601;48.042;12.240;2022-08-19T04:59:03;95751.44;;;22.20;64.49
12757;BME280;31601;48.042;12.240;2022-08-19T05:01:31;95753.03;;;22.21;64.61
12757;BME280;31601;48.042;12.240;2022-08-19T05:04:00;95749.28;;;22.22;64.62
12757;BME280;31601;48.042;12.240;2022-08-19T05:06:28;95748.47;;;22.27;64.71
12757;BME280;31601;48.042;12.240;2022-08-19T05:08:59;95753.56;;;22.18;64.88
12757;BME280;31601;48.042;12.240;2022-08-19T05:11:28;95751.94;;;22.27;64.90
12757;BME280;31601;48.042;12.240;2022-08-19T05:13:56;95741.81;;;22.34;64.55
12757;BME280;31601;48.042;12.240;2022-08-19T05:16:24;95731.13;;;22.34;64.84
12757;BME280;31601;48.042;12.240;2022-08-19T05:18:51;95734.88;;;22.39;64.67
12757;BME280;31601;48.042;12.240;2022-08-19T05:21:39;95731.66;;;22.37;64.31
12757;BME280;31601;48.042;12.240;2022-08-19T05:24:23;95736.19;;;22.46;63.79
12757;BME280;31601;48.042;12.240;2022-08-19T05:26:52;95732.19;;;22.44;64.28
12757;BME280;31601;48.042;12.240;2022-08-19T05:29:22;95725.75;;;22.50;63.98
12757;BME280;31601;48.042;12.240;2022-08-19T05:31:49;95720.66;;;22.48;64.19
12757;BME280;31601;48.042;12.240;2022-08-19T05:34:17;95714.00;;;22.51;63.89
12757;BME280;31601;48.042;12.240;2022-08-19T05:36:49;95711.31;;;22.51;64.17
12757;BME280;31601;48.042;12.240;2022-08-19T05:39:19;95717.44;;;22.57;64.26
12757;BME280;31601;48.042;12.240;2022-08-19T05:41:48;95728.91;;;22.62;63.89
12757;BME280;31601;48.042;12.240;2022-08-19T05:44:15;95716.84;;;22.70;64.01
12757;BME280;31601;48.042;12.240;2022-08-19T05:46:44;95713.63;;;22.73;63.62
12757;BME280;31601;48.042;12.240;2022-08-19T05:49:13;95711.75;;;22.74;63.13
12757;BME280;31601;48.042;12.240;2022-08-19T05:51:40;95711.25;;;22.66;63.09
12757;BME280;31601;48.042;12.240;2022-08-19T05:54:08;95720.59;;;22.74;62.95
12757;BME280;31601;48.042;12.240;2022-08-19T05:56:36;95727.28;;;22.71;62.80
12757;BME280;31601;48.042;12.240;2022-08-19T05:59:04;95727.78;;;22.74;62.92
12757;BME280;31601;48.042;12.240;2022-08-19T06:01:36;95734.22;;;22.67;63.28
12757;BME280;31601;48.042;12.240;2022-08-19T06:04:04;95732.63;;;22.71;62.71
12757;BME280;31601;48.042;12.240;2022-08-19T06:06:30;95729.41;;;22.75;62.27
12757;BME280;31601;48.042;12.240;2022-08-19T06:08:59;95739.56;;;22.67;62.58
12757;BME280;31601;48.042;12.240;2022-08-19T06:11:34;95732.34;;;22.73;62.65
12757;BME280;31601;48.042;12.240;2022-08-19T06:14:04;95718.19;;;22.73;62.79
12757;BME280;31601;48.042;12.240;2022-08-19T06:16:33;95715.50;;;22.73;62.66
12757;BME280;31601;48.042;12.240;2022-08-19T06:19:02;95717.66;;;22.65;62.49
12757;BME280;31601;48.042;12.240;2022-08-19T06:21:30;95714.22;;;22.55;62.67
12757;BME280;31601;48.042;12.240;2022-08-19T06:23:57;95724.69;;;22.51;62.34
12757;BME280;31601;48.042;12.240;2022-08-19T06:26:24;95726.25;;;22.52;62.85
12757;BME280;31601;48.042;12.240;2022-08-19T06:28:53;95713.97;;;22.56;63.17
12757;BME280;31601;48.042;12.240;2022-08-19T06:31:23;95728.38;;;22.55;63.64
12757;BME280;31601;48.042;12.240;2022-08-19T06:33:51;95732.09;;;22.64;63.36
12757;BME280;31601;48.042;12.240;2022-08-19T06:36:20;95731.81;;;22.76;63.43
12757;BME280;31601;48.042;12.240;2022-08-19T06:38:47;95726.97;;;22.78;63.26
12757;BME280;31601;48.042;12.240;2022-08-19T06:41:13;95727.00;;;22.73;63.23
12757;BME280;31601;48.042;12.240;2022-08-19T06:43:40;95735.84;;;22.68;63.04
12757;BME280;31601;48.042;12.240;2022-08-19T06:46:14;95735.25;;;22.77;62.79
12757;BME280;31601;48.042;12.240;2022-08-19T06:48:41;95731.56;;;22.73;63.23
12757;BME280;31601;48.042;12.240;2022-08-19T06:51:08;95734.72;;;22.80;62.71
12757;BME280;31601;48.042;12.240;2022-08-19T06:53:34;95728.59;;;22.79;62.74
12757;BME280;31601;48.042;12.240;2022-08-19T06:56:01;95727.22;;;22.87;62.61
12757;BME280;31601;48.042;12.240;2022-08-19T06:58:28;95718.13;;;22.83;62.78
12757;BME280;31601;48.042;12.240;2022-08-19T07:00:58;95711.13;;;22.97;62.94
12757;BME280;31601;48.042;12.240;2022-08-19T07:03:28;95711.75;;;23.29;62.48
12757;BME280;31601;48.042;12.240;2022-08-19T07:05:56;95694.91;;;23.28;61.96
12757;BME280;31601;48.042;12.240;2022-08-19T07:08:24;95690.59;;;23.32;61.67
12757;BME280;31601;48.042;12.240;2022-08-19T07:10:52;95686.25;;;22.92;62.77
12757;BME280;31601;48.042;12.240;2022-08-19T07:13:20;95681.63;;;22.47;63.75
12757;BME280;31601;48.042;12.240;2022-08-19T07:15:47;95685.66;;;22.40;64.26
12757;BME280;31601;48.042;12.240;2022-08-19T07:18:15;95683.16;;;22.69;64.32
12757;BME280;31601;48.042;12.240;2022-08-19T07:20:43;95687.59;;;22.89;63.81
12757;BME280;31601;48.042;12.240;2022-08-19T07:23:10;95691.94;;;22.80;64.11
12757;BME280;31601;48.042;12.240;2022-08-19T07:25:36;95686.91;;;22.68;63.74
12757;BME280;31601;48.042;12.240;2022-08-19T07:28:03;95677.84;;;22.64;63.56
12757;BME280;31601;48.042;12.240;2022-08-19T07:30:30;95685.25;;;22.82;64.08
12757;BME280;31601;48.042;12.240;2022-08-19T07:32:57;95678.91;;;22.68;64.59
12757;BME280;31601;48.042;12.240;2022-08-19T07:35:23;95679.16;;;22.71;64.40
12757;BME280;31601;48.042;12.240;2022-08-19T07:37:52;95682.56;;;22.82;65.08
12757;BME280;31601;48.042;12.240;2022-08-19T07:40:18;95682.44;;;23.03;64.50
12757;BME280;31601;48.042;12.240;2022-08-19T07:42:45;95685.69;;;23.00;64.17
12757;BME280;31601;48.042;12.240;2022-08-19T07:45:12;95690.75;;;23.01;64.66
12757;BME280;31601;48.042;12.240;2022-08-19T07:47:38;95694.41;;;23.21;64.41
12757;BME280;31601;48.042;12.240;2022-08-19T07:50:08;95700.88;;;23.15;63.60
12757;BME280;31601;48.042;12.240;2022-08-19T07:52:37;95697.16;;;23.05;64.72
12757;BME280;31601;48.042;12.240;2022-08-19T07:55:07;95694.47;;;23.16;63.97
12757;BME280;31601;48.042;12.240;2022-08-19T07:57:35;95707.38;;;23.43;63.42
12757;BME280;31601;48.042;12.240;2022-08-19T08:00:03;95702.31;;;23.41;63.05
12757;BME280;31601;48.042;12.240;2022-08-19T08:02:30;95709.78;;;23.45;63.12
12757;BME280;31601;48.042;12.240;2022-08-19T08:04:56;95708.66;;;23.56;62.66
12757;BME280;31601;48.042;12.240;2022-08-19T08:07:40;95718.25;;;23.57;62.58
12757;BME280;31601;48.042;12.240;2022-08-19T08:10:26;95727.94;;;23.53;62.55
12757;BME280;31601;48.042;12.240;2022-08-19T08:12:53;95725.28;;;23.48;63.29
12757;BME280;31601;48.042;12.240;2022-08-19T08:15:20;95736.91;;;23.33;63.09
12757;BME280;31601;48.042;12.240;2022-08-19T08:17:47;95736.22;;;23.06;64.20
12757;BME280;31601;48.042;12.240;2022-08-19T08:20:14;95730.88;;;23.06;64.49
12757;BME280;31601;48.042;12.240;2022-08-19T08:22:43;95733.06;;;22.94;64.24
12757;BME280;31601;48.042;12.240;2022-08-19T08:25:29;95737.88;;;22.97;64.80
12757;BME280;31601;48.042;12.240;2022-08-19T08:27:56;95737.34;;;22.90;65.33
12757;BME280;31601;48.042;12.240;2022-08-19T08:30:26;95736.28;;;22.86;65.58
12757;BME280;31601;48.042;12.240;2022-08-19T08:32:53;95746.44;;;22.94;65.39
12757;BME280;31601;48.042;12.240;2022-08-19T08:35:22;95749.69;;;22.81;65.73
12757;BME280;31601;48.042;12.240;2022-08-19T08:37:51;95744.16;;;22.62;66.33
12757;BME280;31601;48.042;12.240;2022-08-19T08:40:22;95745.22;;;22.61;67.11
12757;BME280;31601;48.042;12.240;2022-08-19T08:42:54;95746.06;;;22.51;67.77
12757;BME280;31601;48.042;12.240;2022-08-19T08:45:26;95747.38;;;22.59;67.75
12757;BME280;31601;48.042;12.240;2022-08-19T08:47:55;95754.63;;;22.43;68.31
12757;BME280;31601;48.042;12.240;2022-08-19T08:50:27;95753.53;;;22.49;68.39
12757;BME280;31601;48.042;12.240;2022-08-19T08:52:56;95753.84;;;22.22;69.29
12757;BME280;31601;48.042;12.240;2022-08-19T08:55:26;95747.69;;;22.31;69.10
12757;BME280;31601;48.042;12.240;2022-08-19T08:57:57;95743.94;;;22.12;68.82
12757;BME280;31601;48.042;12.240;2022-08-19T09:00:27;95740.19;;;22.18;70.32
12757;BME280;31601;48.042;12.240;2022-08-19T09:02:56;95741.31;;;21.91;71.87
12757;BME280;31601;48.042;12.240;2022-08-19T09:05:30;95739.97;;;21.94;71.27
12757;BME280;31601;48.042;12.240;2022-08-19T09:08:07;95735.16;;;21.70;72.24
12757;BME280;31601;48.042;12.240;2022-08-19T09:10:38;95736.19;;;22.21;71.05
12757;BME280;31601;48.042;12.240;2022-08-19T09:13:10;95740.88;;;22.75;71.56
12757;BME280;31601;48.042;12.240;2022-08-19T09:15:45;95746.88;;;23.17;71.40
12757;BME280;31601;48.042;12.240;2022-08-19T09:18:13;95747.94;;;23.66;69.87
12757;BME280;31601;48.042;12.240;2022-08-19T09:20:40;95752.59;;;23.89;68.49
12757;BME280;31601;48.042;12.240;2022-08-19T09:23:06;95744.81;;;24.46;66.53
12757;BME280;31601;48.042;12.240;2022-08-19T09:25:33;95747.63;;;24.65;63.68
12757;BME280;31601;48.042;12.240;2022-08-19T09:28:00;95759.72;;;24.87;63.76
12757;BME280;31601;48.042;12.240;2022-08-19T09:30:32;95759.34;;;24.94;62.41
12757;BME280;31601;48.042;12.240;2022-08-19T09:32:59;95763.16;;;25.12;61.95
12757;BME280;31601;48.042;12.240;2022-08-19T09:35:28;95757.69;;;24.98;62.16
12757;BME280;31601;48.042;12.240;2022-08-19T09:37:55;95752.91;;;25.38;61.49
12757;BME280;31601;48.042;12.240;2022-08-19T09:40:22;95748.78;;;25.46;61.19
12757;BME280;31601;48.042;12.240;2022-08-19T09:42:48;95740.16;;;25.82;60.61
12757;BME280;31601;48.042;12.240;2022-08-19T09:45:16;95750.88;;;26.34;60.26
12757;BME280;31601;48.042;12.240;2022-08-19T09:47:44;95749.38;;;26.55;58.95
12757;BME280;31601;48.042;12.240;2022-08-19T09:50:11;95746.69;;;26.41;57.63
12757;BME280;31601;48.042;12.240;2022-08-19T09:52:38;95741.44;;;26.03;57.52
12757;BME280;31601;48.042;12.240;2022-08-19T09:55:06;95744.88;;;26.23;58.09
12757;BME280;31601;48.042;12.240;2022-08-19T09:57:34;95748.94;;;25.87;57.69
12757;BME280;31601;48.042;12.240;2022-08-19T10:00:01;95752.56;;;25.97;58.29
12757;BME280;31601;48.042;12.240;2022-08-19T10:02:28;95748.69;;;25.51;57.61
12757;BME280;31601;48.042;12.240;2022-08-19T10:04:56;95753.72;;;25.90;56.46
12757;BME280;31601;48.042;12.240;2022-08-19T10:07:40;95747.97;;;26.44;57.27
12757;BME280;31601;48.042;12.240;2022-08-19T10:10:08;95733.84;;;26.52;56.61
12757;BME280;31601;48.042;12.240;2022-08-19T10:12:36;95724.88;;;26.85;56.48
12757;BME280;31601;48.042;12.240;2022-08-19T10:15:04;95725.16;;;26.55;55.47
12757;BME280;31601;48.042;12.240;2022-08-19T10:17:31;95718.81;;;26.37;55.92
12757;BME280;31601;48.042;12.240;2022-08-19T10:20:00;95716.84;;;25.77;57.95
12757;BME280;31601;48.042;12.240;2022-08-19T10:22:27;95715.03;;;25.72;58.68
12757;BME280;31601;48.042;12.240;2022-08-19T10:24:54;95728.13;;;25.93;58.07
12757;BME280;31601;48.042;12.240;2022-08-19T10:27:22;95735.63;;;26.57;57.98
12757;BME280;31601;48.042;12.240;2022-08-19T10:29:48;95738.25;;;26.48;59.56
12757;BME280;31601;48.042;12.240;2022-08-19T10:32:15;95732.00;;;26.67;56.79
12757;BME280;31601;48.042;12.240;2022-08-19T10:34:42;95732.34;;;26.46;56.88
12757;BME280;31601;48.042;12.240;2022-08-19T10:37:10;95728.75;;;26.23;55.96
12757;BME280;31601;48.042;12.240;2022-08-19T10:39:36;95722.19;;;26.98;55.29
12757;BME280;31601;48.042;12.240;2022-08-19T10:42:04;95717.75;;;27.30;54.09
12757;BME280;31601;48.042;12.240;2022-08-19T10:44:32;95712.72;;;27.51;53.61
12757;BME280;31601;48.042;12.240;2022-08-19T10:47:00;95706.97;;;27.30;53.57
12757;BME280;31601;48.042;12.240;2022-08-19T10:49:27;95705.97;;;26.76;52.47
12757;BME280;31601;48.042;12.240;2022-08-19T10:51:53;95696.59;;;27.60;54.31
12757;BME280;31601;48.042;12.240;2022-08-19T10:54:39;95698.69;;;28.09;53.13
12757;BME280;31601;48.042;12.240;2022-08-19T10:57:23;95688.22;;;28.96;51.02
12757;BME280;31601;48.042;12.240;2022-08-19T10:59:54;95685.47;;;27.98;50.84
12757;BME280;31601;48.042;12.240;2022-08-19T11:02:21;95686.75;;;28.72;50.25
12757;BME280;31601;48.042;12.240;2022-08-19T11:04:48;95681.34;;;28.32;51.16
12757;BME280;31601;48.042;12.240;2022-08-19T11:07:15;95680.88;;;27.76;50.46
12757;BME280;31601;48.042;12.240;2022-08-19T11:09:43;95682.94;;;26.97;51.89
12757;BME280;31601;48.042;12.240;2022-08-19T11:12:11;95676.88;;;27.51;51.30
12757;BME280;31601;48.042;12.240;2022-08-19T11:14:40;95674.97;;;28.19;50.90
12757;BME280;31601;48.042;12.240;2022-08-19T11:17:07;95672.59;;;28.27;50.62
12757;BME280;31601;48.042;12.240;2022-08-19T11:19:33;95676.13;;;28.04;49.96
12757;BME280;31601;48.042;12.240;2022-08-19T11:22:00;95668.94;;;27.46;50.10
12757;BME280;31601;48.042;12.240;2022-08-19T11:24:29;95669.56;;;27.29;50.90
12757;BME280;31601;48.042;12.240;2022-08-19T11:27:03;95660.81;;;26.87;49.94
12757;BME280;31601;48.042;12.240;2022-08-19T11:29:30;95661.22;;;26.80;51.39
12757;BME280;31601;48.042;12.240;2022-08-19T11:31:57;95666.81;;;26.14;52.46
12757;BME280;31601;48.042;12.240;2022-08-19T11:34:27;95668.56;;;26.05;52.57
12757;BME280;31601;48.042;12.240;2022-08-19T11:36:55;95655.81;;;26.80;52.28
12757;BME280;31601;48.042;12.240;2022-08-19T11:39:25;95650.84;;;26.87;52.37
12757;BME280;31601;48.042;12.240;2022-08-19T11:41:51;95651.94;;;26.86;52.52
12757;BME280;31601;48.042;12.240;2022-08-19T11:44:19;95656.75;;;26.34;54.18
12757;BME280;31601;48.042;12.240;2022-08-19T11:46:46;95661.63;;;26.59;52.78
12757;BME280;31601;48.042;12.240;2022-08-19T11:49:13;95669.50;;;26.84;52.83
12757;BME280;31601;48.042;12.240;2022-08-19T11:51:40;95656.91;;;26.93;51.50
12757;BME280;31601;48.042;12.240;2022-08-19T11:54:08;95664.59;;;26.44;52.55
12757;BME280;31601;48.042;12.240;2022-08-19T11:56:37;95658.44;;;26.57;54.04
12757;BME280;31601;48.042;12.240;2022-08-19T11:59:03;95656.34;;;26.54;53.48
12757;BME280;31601;48.042;12.240;2022-08-19T12:01:31;95659.53;;;26.56;51.46
12757;BME280;31601;48.042;12.240;2022-08-19T12:03:58;95661.09;;;27.22;52.42
12757;BME280;31601;48.042;12.240;2022-08-19T12:06:26;95664.47;;;27.27;49.62
12757;BME280;31601;48.042;12.240;2022-08-19T12:08:54;95660.09;;;27.77;49.55
12757;BME280;31601;48.042;12.240;2022-08-19T12:11:21;95656.56;;;27.45;50.30
12757;BME280;31601;48.042;12.240;2022-08-19T12:13:47;95655.09;;;27.25;51.30
12757;BME280;31601;48.042;12.240;2022-08-19T12:16:16;95650.94;;;27.19;50.70
12757;BME280;31601;48.042;12.240;2022-08-19T12:18:46;95650.94;;;27.55;49.38
12757;BME280;31601;48.042;12.240;2022-08-19T12:21:13;95659.63;;;27.75;48.61
12757;BME280;31601;48.042;12.240;2022-08-19T12:23:40;95664.91;;;27.35;50.05
12757;BME280;31601;48.042;12.240;2022-08-19T12:26:08;95669.69;;;26.45;52.18
12757;BME280;31601;48.042;12.240;2022-08-19T12:28:35;95672.00;;;26.66;51.64
12757;BME280;31601;48.042;12.240;2022-08-19T12:31:02;95669.88;;;26.77;51.49
12757;BME280;31601;48.042;12.240;2022-08-19T12:33:29;95673.69;;;27.12;50.58
12757;BME280;31601;48.042;12.240;2022-08-19T12:36:02;95658.09;;;27.37;49.36
12757;BME280;31601;48.042;12.240;2022-08-19T12:38:29;95666.13;;;27.14;50.10
12757;BME280;31601;48.042;12.240;2022-08-19T12:40:57;95666.09;;;26.78;50.86
12757;BME280;31601;48.042;12.240;2022-08-19T12:43:24;95668.91;;;26.45;52.49
12757;BME280;31601;48.042;12.240;2022-08-19T12:45:51;95667.44;;;26.67;52.70
12757;BME280;31601;48.042;12.240;2022-08-19T12:48:18;95658.44;;;26.71;52.15
12757;BME280;31601;48.042;12.240;2022-08-19T12:50:45;95672.94;;;26.01;52.88
12757;BME280;31601;48.042;12.240;2022-08-19T12:53:14;95670.50;;;25.85;54.19
12757;BME280;31601;48.042;12.240;2022-08-19T12:55:41;95676.66;;;26.19;53.36